createdAt,value
2023-04-21T00:01:32.378Z,20.77
2023-04-21T00:04:00.497Z,20.50
2023-04-21T00:06:28.819Z,20.40
2023-04-21T00:08:56.094Z,17.03
2023-04-21T00:11:24.105Z,18.13
2023-04-21T00:13:51.347Z,17.37
2023-04-21T00:16:18.770Z,17.37
2023-04-21T00:18:48.174Z,21.27
2023-04-21T00:23:43.838Z,17.93
2023-04-21T00:26:11.449Z,16.10
2023-04-21T00:28:39.645Z,18.67
2023-04-21T00:31:06.976Z,18.80
2023-04-21T00:33:34.681Z,22.13
2023-04-21T00:36:01.924Z,28.70
2023-04-21T00:38:29.339Z,25.73
2023-04-21T00:40:56.941Z,19.17
2023-04-21T00:43:25.929Z,25.97
2023-04-21T00:45:54.747Z,23.07
2023-04-21T00:48:22.436Z,20.00
2023-04-21T00:50:49.770Z,18.87
2023-04-21T00:53:17.955Z,20.30
2023-04-21T00:55:46.120Z,45.42
2023-04-21T00:58:14.631Z,73.37
2023-04-21T01:00:43.241Z,69.78
2023-04-21T01:03:11.098Z,118.43
2023-04-21T01:05:38.667Z,150.67
2023-04-21T01:08:06.916Z,45.23
2023-04-21T01:10:34.550Z,109.03
2023-04-21T01:13:01.822Z,83.97
2023-04-21T01:15:31.436Z,93.23
2023-04-21T01:17:59.548Z,47.40
2023-04-21T01:20:30.391Z,79.43
2023-04-21T01:22:58.585Z,29.93
2023-04-21T01:25:28.767Z,82.87
2023-04-21T01:27:56.640Z,38.57
2023-04-21T01:30:24.524Z,42.87
2023-04-21T01:32:52.096Z,22.80
2023-04-21T01:35:19.604Z,59.17
2023-04-21T01:37:47.251Z,64.87
2023-04-21T01:40:14.580Z,48.73
2023-04-21T01:42:43.649Z,44.13
2023-04-21T01:45:12.394Z,21.97
2023-04-21T01:47:39.933Z,44.88
2023-04-21T01:50:08.369Z,24.47
2023-04-21T01:52:35.934Z,40.00
2023-04-21T01:55:03.605Z,35.87
2023-04-21T01:57:31.250Z,23.50
2023-04-21T01:59:59.060Z,35.40
2023-04-21T02:02:27.745Z,27.33
2023-04-21T02:04:55.548Z,40.43
2023-04-21T02:07:22.856Z,44.80
2023-04-21T02:09:50.146Z,31.43
2023-04-21T02:12:17.815Z,76.43
2023-04-21T02:14:47.385Z,109.10
2023-04-21T02:17:14.756Z,40.57
2023-04-21T02:19:42.570Z,211.40
2023-04-21T02:22:12.977Z,127.30
2023-04-21T02:24:40.905Z,91.67
2023-04-21T02:27:08.656Z,138.02
2023-04-21T02:29:36.178Z,125.77
2023-04-21T02:32:10.956Z,124.70
2023-04-21T02:34:45.867Z,98.43
2023-04-21T02:37:13.422Z,49.47
2023-04-21T02:39:40.793Z,27.10
2023-04-21T02:42:08.634Z,74.10
2023-04-21T02:44:38.629Z,54.90
2023-04-21T02:47:07.442Z,79.27
2023-04-21T02:49:41.629Z,72.12
2023-04-21T02:52:09.531Z,74.93
2023-04-21T02:54:37.262Z,79.00
2023-04-21T02:57:04.537Z,81.17
2023-04-21T02:59:33.648Z,71.80
2023-04-21T03:02:01.641Z,60.97
2023-04-21T03:04:29.299Z,45.40
2023-04-21T03:06:58.257Z,53.40
2023-04-21T03:09:26.150Z,49.70
2023-04-21T03:11:53.554Z,46.03
2023-04-21T03:14:21.118Z,45.30
2023-04-21T03:16:49.092Z,49.40
2023-04-21T03:19:16.706Z,72.30
2023-04-21T03:21:45.622Z,48.20
2023-04-21T03:24:13.771Z,83.40
2023-04-21T03:26:49.152Z,142.27
2023-04-21T03:29:23.950Z,98.23
2023-04-21T03:31:51.868Z,36.87
2023-04-21T03:34:21.034Z,69.80
2023-04-21T03:36:48.582Z,20.33
2023-04-21T03:39:20.054Z,19.17
2023-04-21T03:41:48.851Z,63.10
2023-04-21T03:44:16.375Z,38.67
2023-04-21T03:46:43.752Z,18.67
2023-04-21T03:49:11.557Z,61.67
2023-04-21T03:51:38.901Z,93.13
2023-04-21T03:54:06.215Z,13.13
2023-04-21T03:56:33.896Z,11.23
2023-04-21T03:59:01.211Z,14.13
2023-04-21T04:01:28.649Z,9.43
2023-04-21T04:04:07.560Z,15.70
2023-04-21T04:06:35.891Z,11.50
2023-04-21T04:09:05.143Z,12.02
2023-04-21T04:11:33.369Z,9.30
2023-04-21T04:14:01.313Z,10.95
2023-04-21T04:19:01.944Z,10.37
2023-04-21T04:21:30.077Z,12.85
2023-04-21T04:23:57.887Z,10.97
2023-04-21T04:26:25.985Z,15.03
2023-04-21T04:28:56.709Z,11.20
2023-04-21T04:31:33.547Z,12.17
2023-04-21T04:34:02.159Z,10.70
2023-04-21T04:36:30.067Z,11.37
2023-04-21T04:38:58.959Z,10.73
2023-04-21T04:41:27.163Z,13.47
2023-04-21T04:43:54.387Z,12.53
2023-04-21T04:46:23.088Z,17.17
2023-04-21T04:48:51.121Z,14.05
2023-04-21T04:51:28.875Z,13.17
2023-04-21T04:53:59.388Z,13.90
2023-04-21T04:56:31.862Z,12.90
2023-04-21T04:59:04.263Z,19.30
2023-04-21T05:01:38.066Z,21.93
2023-04-21T05:04:06.660Z,15.63
2023-04-21T05:06:43.151Z,12.60
2023-04-21T05:09:18.098Z,18.10
2023-04-21T05:11:49.967Z,10.80
2023-04-21T05:14:22.233Z,17.03
2023-04-21T05:16:49.774Z,15.20
2023-04-21T05:19:18.912Z,18.17
2023-04-21T05:22:07.089Z,22.70
2023-04-21T05:24:34.987Z,24.10
2023-04-21T05:27:03.229Z,25.00
2023-04-21T05:29:31.309Z,29.03
2023-04-21T05:31:58.977Z,27.15
2023-04-21T05:34:26.381Z,25.20
2023-04-21T05:36:53.736Z,23.10
2023-04-21T05:39:21.506Z,19.83
2023-04-21T05:41:48.971Z,17.07
2023-04-21T05:44:19.722Z,18.87
2023-04-21T05:46:47.755Z,20.20
2023-04-21T05:49:16.716Z,14.80
2023-04-21T05:51:44.237Z,14.00
2023-04-21T05:54:13.057Z,14.63
2023-04-21T05:56:41.615Z,23.57
2023-04-21T05:59:08.976Z,15.60
2023-04-21T06:01:37.068Z,15.10
2023-04-21T06:04:05.512Z,13.40
2023-04-21T06:06:33.996Z,16.23
2023-04-21T06:09:01.748Z,16.30
2023-04-21T06:11:29.958Z,22.37
2023-04-21T06:14:00.259Z,13.60
2023-04-21T06:16:31.016Z,12.67
2023-04-21T06:18:59.286Z,14.07
2023-04-21T06:21:26.691Z,18.23
2023-04-21T06:24:12.252Z,19.07
2023-04-21T06:26:40.572Z,16.37
2023-04-21T06:29:10.209Z,15.27
2023-04-21T06:31:38.287Z,14.13
2023-04-21T06:34:06.506Z,13.45
2023-04-21T06:36:34.134Z,16.27
2023-04-21T06:39:02.664Z,17.40
2023-04-21T06:41:31.096Z,19.85
2023-04-21T06:43:58.652Z,20.73
2023-04-21T06:46:26.077Z,19.10
2023-04-21T06:48:53.821Z,15.83
2023-04-21T06:51:22.850Z,14.82
2023-04-21T06:53:50.390Z,16.47
2023-04-21T06:56:18.282Z,15.40
2023-04-21T06:58:48.556Z,14.53
2023-04-21T07:01:15.953Z,16.37
2023-04-21T07:03:47.265Z,13.30
2023-04-21T07:06:15.764Z,11.63
2023-04-21T07:08:43.422Z,14.07
2023-04-21T07:13:42.912Z,16.10
2023-04-21T07:16:12.008Z,15.30
2023-04-21T07:18:42.245Z,12.63
2023-04-21T07:21:18.771Z,12.67
2023-04-21T07:23:48.807Z,11.97
2023-04-21T07:26:16.218Z,12.13
2023-04-21T07:28:46.724Z,14.87
2023-04-21T07:31:17.782Z,16.53
2023-04-21T07:33:46.054Z,10.17
2023-04-21T07:36:13.661Z,9.90
2023-04-21T07:38:49.357Z,15.13
2023-04-21T07:41:18.523Z,9.80
2023-04-21T07:46:18.449Z,11.97
2023-04-21T07:48:46.546Z,12.73
2023-04-21T07:51:18.319Z,13.35
2023-04-21T07:53:45.702Z,12.83
2023-04-21T07:56:13.854Z,11.57
2023-04-21T07:58:41.670Z,11.40
2023-04-21T08:01:09.949Z,11.17
2023-04-21T08:03:40.175Z,11.60
2023-04-21T08:06:09.206Z,9.73
2023-04-21T08:08:48.339Z,8.57
2023-04-21T08:11:16.814Z,11.37
2023-04-21T08:13:46.304Z,10.57
2023-04-21T08:16:13.793Z,8.97
2023-04-21T08:21:10.274Z,9.20
2023-04-21T08:23:37.946Z,9.97
2023-04-21T08:26:05.828Z,10.27
2023-04-21T08:28:33.380Z,9.70
2023-04-21T08:31:02.810Z,9.87
2023-04-21T08:33:30.782Z,16.60
2023-04-21T08:36:04.246Z,14.43
2023-04-21T08:38:38.828Z,9.77
2023-04-21T08:41:06.437Z,8.93
2023-04-21T08:43:34.149Z,10.13
2023-04-21T08:46:07.589Z,8.00
2023-04-21T08:48:39.317Z,8.87
2023-04-21T08:51:11.860Z,10.27
2023-04-21T08:53:41.612Z,10.23
2023-04-21T08:56:11.836Z,16.43
2023-04-21T08:58:39.496Z,11.37
2023-04-21T09:01:07.184Z,8.67
2023-04-21T09:03:36.013Z,11.23
2023-04-21T09:06:07.170Z,10.02
2023-04-21T09:08:44.358Z,12.33
2023-04-21T09:11:15.389Z,8.93
2023-04-21T09:13:45.016Z,8.90
2023-04-21T09:16:21.764Z,10.50
2023-04-21T09:18:51.785Z,12.57
2023-04-21T09:21:20.602Z,10.23
2023-04-21T09:23:50.151Z,12.30
2023-04-21T09:26:19.798Z,11.23
2023-04-21T09:28:49.023Z,10.50
2023-04-21T09:31:22.277Z,9.50
2023-04-21T09:36:28.189Z,14.10
2023-04-21T09:41:32.606Z,10.40
2023-04-21T09:44:07.254Z,14.47
2023-04-21T09:46:37.051Z,7.63
2023-04-21T09:49:06.279Z,7.93
2023-04-21T09:54:28.295Z,12.15
2023-04-21T09:57:02.567Z,5.83
2023-04-21T09:59:35.237Z,7.37
2023-04-21T10:02:06.516Z,7.83
2023-04-21T10:04:36.809Z,8.33
2023-04-21T10:07:05.507Z,7.43
2023-04-21T10:09:41.923Z,10.48
2023-04-21T10:12:12.305Z,5.83
2023-04-21T10:14:39.879Z,12.47
2023-04-21T10:17:10.236Z,5.73
2023-04-21T10:19:48.865Z,8.80
2023-04-21T10:22:27.842Z,9.70
2023-04-21T10:25:03.289Z,8.53
2023-04-21T10:27:43.127Z,8.60
2023-04-21T10:30:22.810Z,7.77
2023-04-21T10:33:03.706Z,12.07
2023-04-21T10:36:02.232Z,7.13
2023-04-21T10:38:41.960Z,10.50
2023-04-21T10:41:36.339Z,8.25
2023-04-21T10:44:10.391Z,5.57
2023-04-21T10:46:40.949Z,10.65
2023-04-21T10:49:11.349Z,11.82
2023-04-21T10:52:08.853Z,8.50
2023-04-21T10:54:46.117Z,5.40
2023-04-21T10:57:16.902Z,5.25
2023-04-21T10:59:48.282Z,6.40
2023-04-21T11:02:18.839Z,6.82
2023-04-21T11:04:52.035Z,9.00
2023-04-21T11:07:21.840Z,9.77
2023-04-21T11:09:57.918Z,10.30
2023-04-21T11:12:31.517Z,16.35
2023-04-21T11:14:59.114Z,8.63
2023-04-21T11:17:26.856Z,13.23
2023-04-21T11:19:56.607Z,10.90
2023-04-21T11:22:26.515Z,9.03
2023-04-21T11:24:56.188Z,9.82
2023-04-21T11:27:26.305Z,9.88
2023-04-21T11:29:54.088Z,11.25
2023-04-21T11:32:22.002Z,7.35
2023-04-21T11:34:50.709Z,7.78
2023-04-21T11:37:28.104Z,7.20
2023-04-21T11:40:00.481Z,7.05
2023-04-21T11:42:29.169Z,8.90
2023-04-21T11:44:57.472Z,8.77
2023-04-21T11:47:28.971Z,4.35
2023-04-21T11:49:58.988Z,13.18
2023-04-21T11:52:29.051Z,8.82
2023-04-21T11:55:19.695Z,8.93
2023-04-21T11:57:47.645Z,20.33
2023-04-21T12:00:16.076Z,8.15
2023-04-21T12:02:44.700Z,6.47
2023-04-21T12:05:14.048Z,8.77
2023-04-21T12:07:44.194Z,8.20
2023-04-21T12:10:20.578Z,9.75
2023-04-21T12:12:48.408Z,9.27
2023-04-21T12:15:20.675Z,9.35
2023-04-21T12:17:51.060Z,6.50
2023-04-21T12:20:28.765Z,7.18
2023-04-21T12:22:56.856Z,9.23
2023-04-21T12:25:25.339Z,8.90
2023-04-21T12:27:54.508Z,9.90
2023-04-21T12:30:22.059Z,6.90
2023-04-21T12:32:50.163Z,11.03
2023-04-21T12:35:19.117Z,7.57
2023-04-21T12:37:46.973Z,12.32
2023-04-21T12:40:14.673Z,10.18
2023-04-21T12:42:42.026Z,12.30
2023-04-21T12:45:09.694Z,9.03
2023-04-21T12:47:39.595Z,27.20
2023-04-21T12:50:08.542Z,15.17
2023-04-21T12:52:35.902Z,13.07
2023-04-21T12:55:04.203Z,10.47
2023-04-21T12:57:32.147Z,15.60
2023-04-21T13:00:01.033Z,16.67
2023-04-21T13:02:31.032Z,15.90
2023-04-21T13:04:58.574Z,14.43
2023-04-21T13:07:27.153Z,12.30
2023-04-21T13:12:22.197Z,10.27
2023-04-21T13:14:49.693Z,15.97
2023-04-21T13:17:17.687Z,11.60
2023-04-21T13:19:45.222Z,13.03
2023-04-21T13:22:13.879Z,9.40
2023-04-21T13:24:41.784Z,10.50
2023-04-21T13:27:09.376Z,8.50
2023-04-21T13:29:36.812Z,9.60
2023-04-21T13:32:06.813Z,14.80
2023-04-21T13:34:35.034Z,8.43
2023-04-21T13:37:02.757Z,14.40
2023-04-21T13:39:30.830Z,84.80
2023-04-21T13:41:58.487Z,13.03
2023-04-21T13:44:26.021Z,54.23
2023-04-21T13:46:54.196Z,18.70
2023-04-21T13:49:21.715Z,28.97
2023-04-21T13:51:49.147Z,14.47
2023-04-21T13:54:17.300Z,16.70
2023-04-21T13:56:44.762Z,13.80
2023-04-21T13:59:14.957Z,11.05
2023-04-21T14:01:42.927Z,7.65
2023-04-21T14:04:10.997Z,8.63
2023-04-21T14:06:38.760Z,12.23
2023-04-21T14:09:06.642Z,11.20
2023-04-21T14:11:34.544Z,13.95
2023-04-21T14:14:09.099Z,11.93
2023-04-21T14:16:38.963Z,6.28
2023-04-21T14:19:07.005Z,7.87
2023-04-21T14:21:34.923Z,7.97
2023-04-21T14:24:02.745Z,12.77
2023-04-21T14:26:30.221Z,5.28
2023-04-21T14:28:57.696Z,7.50
2023-04-21T14:31:25.631Z,7.55
2023-04-21T14:33:53.190Z,8.95
2023-04-21T14:36:20.849Z,6.85
2023-04-21T14:38:48.709Z,6.43
2023-04-21T14:41:16.072Z,5.68
2023-04-21T14:43:43.591Z,8.30
2023-04-21T14:46:11.650Z,10.83
2023-04-21T14:48:39.217Z,8.68
2023-04-21T14:51:09.499Z,11.07
2023-04-21T14:53:37.517Z,8.20
2023-04-21T14:56:05.107Z,9.50
2023-04-21T14:58:32.736Z,7.43
2023-04-21T15:01:00.644Z,7.55
2023-04-21T15:03:28.324Z,8.55
2023-04-21T15:05:55.920Z,7.62
2023-04-21T15:08:23.581Z,8.65
2023-04-21T15:10:51.528Z,8.90
2023-04-21T15:13:18.979Z,7.53
2023-04-21T15:15:46.981Z,10.68
2023-04-21T15:18:14.569Z,6.87
2023-04-21T15:20:45.508Z,7.25
2023-04-21T15:23:14.175Z,8.68
2023-04-21T15:25:42.344Z,11.02
2023-04-21T15:28:09.907Z,11.55
2023-04-21T15:30:37.935Z,12.40
2023-04-21T15:33:05.392Z,9.90
2023-04-21T15:35:32.730Z,8.20
2023-04-21T15:38:00.401Z,9.57
2023-04-21T15:40:27.794Z,10.02
2023-04-21T15:42:55.431Z,10.90
2023-04-21T15:45:23.252Z,18.98
2023-04-21T15:47:50.765Z,14.07
2023-04-21T15:50:18.501Z,15.77
2023-04-21T15:52:46.305Z,23.63
2023-04-21T15:55:14.125Z,17.33
2023-04-21T15:57:41.518Z,11.70
2023-04-21T16:00:12.744Z,13.27
2023-04-21T16:02:41.173Z,28.53
2023-04-21T16:05:09.466Z,17.85
2023-04-21T16:07:36.958Z,15.25
2023-04-21T16:10:06.967Z,11.80
2023-04-21T16:15:16.121Z,34.57
2023-04-21T16:17:48.957Z,24.67
2023-04-21T16:20:16.515Z,14.07
2023-04-21T16:22:43.876Z,14.20
2023-04-21T16:25:16.268Z,8.15
2023-04-21T16:27:43.659Z,12.15
2023-04-21T16:30:11.565Z,12.37
2023-04-21T16:32:39.444Z,15.80
2023-04-21T16:35:10.931Z,22.45
2023-04-21T16:37:40.619Z,12.35
2023-04-21T16:40:09.727Z,18.15
2023-04-21T16:42:38.196Z,11.82
2023-04-21T16:45:08.310Z,17.80
2023-04-21T16:47:41.122Z,26.92
2023-04-21T16:50:10.304Z,8.55
2023-04-21T16:52:37.879Z,9.70
2023-04-21T16:55:05.643Z,8.10
2023-04-21T16:57:33.725Z,10.50
2023-04-21T17:00:03.924Z,13.73
2023-04-21T17:02:31.868Z,13.47
2023-04-21T17:05:00.183Z,11.43
2023-04-21T17:07:28.015Z,13.00
2023-04-21T17:09:55.512Z,9.23
2023-04-21T17:12:23.516Z,7.20
2023-04-21T17:14:51.049Z,8.07
2023-04-21T17:17:18.806Z,5.00
2023-04-21T17:19:46.587Z,9.82
2023-04-21T17:22:13.940Z,6.80
2023-04-21T17:24:52.514Z,8.80
2023-04-21T17:27:21.750Z,7.73
2023-04-21T17:29:49.077Z,9.03
2023-04-21T17:32:16.662Z,5.87
2023-04-21T17:34:44.732Z,8.32
2023-04-21T17:37:12.150Z,6.40
2023-04-21T17:39:39.767Z,6.90
2023-04-21T17:42:07.524Z,15.40
2023-04-21T17:44:35.195Z,8.27
2023-04-21T17:47:08.337Z,8.63
2023-04-21T17:49:36.724Z,10.53
2023-04-21T17:52:04.439Z,9.90
2023-04-21T17:54:31.908Z,7.70
2023-04-21T17:56:59.749Z,40.53
2023-04-21T17:59:27.386Z,37.20
2023-04-21T18:01:55.269Z,21.20
2023-04-21T18:04:25.346Z,15.65
2023-04-21T18:06:53.031Z,11.67
2023-04-21T18:09:21.122Z,16.47
2023-04-21T18:11:48.887Z,12.60
2023-04-21T18:14:17.826Z,19.13
2023-04-21T18:16:45.613Z,22.85
2023-04-21T18:19:13.640Z,20.93
2023-04-21T18:21:41.186Z,22.00
2023-04-21T18:24:08.850Z,19.90
2023-04-21T18:26:36.674Z,32.03
2023-04-21T18:29:04.147Z,22.20
2023-04-21T18:31:32.871Z,19.03
2023-04-21T18:36:30.791Z,9.50
2023-04-21T18:38:59.881Z,15.70
2023-04-21T18:41:27.866Z,27.47
2023-04-21T18:43:55.689Z,21.13
2023-04-21T18:46:23.426Z,23.90
2023-04-21T18:48:51.464Z,28.67
2023-04-21T18:51:19.157Z,39.33
2023-04-21T18:53:46.893Z,42.23
2023-04-21T18:56:14.685Z,37.77
2023-04-21T18:58:42.068Z,31.33
2023-04-21T19:01:09.625Z,36.23
2023-04-21T19:03:37.694Z,30.07
2023-04-21T19:06:05.320Z,36.00
2023-04-21T19:08:42.329Z,27.43
2023-04-21T19:11:13.759Z,32.30
2023-04-21T19:13:41.230Z,32.87
2023-04-21T19:16:11.450Z,40.17
2023-04-21T19:18:39.296Z,47.63
2023-04-21T19:21:07.306Z,31.93
2023-04-21T19:23:34.766Z,29.30
2023-04-21T19:26:05.267Z,69.07
2023-04-21T19:28:32.707Z,71.57
2023-04-21T19:31:00.184Z,65.00
2023-04-21T19:33:28.271Z,64.03
2023-04-21T19:35:56.286Z,51.07
2023-04-21T19:38:23.799Z,46.30
2023-04-21T19:40:51.514Z,85.93
2023-04-21T19:43:21.135Z,60.27
2023-04-21T19:45:48.947Z,49.43
2023-04-21T19:48:16.963Z,48.38
2023-04-21T19:50:44.508Z,47.80
2023-04-21T19:53:15.036Z,31.77
2023-04-21T19:55:44.324Z,32.13
2023-04-21T19:58:11.902Z,42.25
2023-04-21T20:00:39.542Z,65.07
2023-04-21T20:03:07.729Z,72.73
2023-04-21T20:05:35.405Z,42.53
2023-04-21T20:08:02.801Z,52.60
2023-04-21T20:10:30.591Z,50.10
2023-04-21T20:12:57.939Z,40.13
2023-04-21T20:15:27.048Z,39.33
2023-04-21T20:17:54.852Z,35.83
2023-04-21T20:20:22.627Z,41.93
2023-04-21T20:22:50.138Z,45.83
2023-04-21T20:25:17.962Z,51.27
2023-04-21T20:27:45.337Z,61.20
2023-04-21T20:30:13.004Z,45.20
2023-04-21T20:32:40.804Z,45.57
2023-04-21T20:35:08.485Z,41.87
2023-04-21T20:37:36.164Z,31.63
2023-04-21T20:40:08.464Z,47.87
2023-04-21T20:42:36.552Z,50.33
2023-04-21T20:45:06.441Z,37.92
2023-04-21T20:47:34.187Z,38.20
2023-04-21T20:50:01.580Z,43.37
2023-04-21T20:52:29.702Z,41.13
2023-04-21T20:54:57.175Z,41.93
2023-04-21T20:57:27.046Z,40.53
2023-04-21T20:59:55.137Z,30.50
2023-04-21T21:02:22.549Z,22.73
2023-04-21T21:04:50.231Z,26.33
2023-04-21T21:07:18.052Z,30.87
2023-04-21T21:09:45.495Z,43.37
2023-04-21T21:12:12.858Z,43.87
2023-04-21T21:14:40.526Z,46.23
2023-04-21T21:17:08.503Z,38.00
2023-04-21T21:19:36.290Z,38.60
2023-04-21T21:22:04.502Z,32.63
2023-04-21T21:24:31.952Z,31.83
2023-04-21T21:26:59.413Z,18.97
2023-04-21T21:29:27.335Z,30.83
2023-04-21T21:31:54.694Z,16.07
2023-04-21T21:34:22.168Z,19.67
2023-04-21T21:36:50.013Z,17.80
2023-04-21T21:39:17.356Z,26.07
2023-04-21T21:41:44.726Z,19.03
2023-04-21T21:44:12.512Z,28.07
2023-04-21T21:46:39.943Z,27.37
2023-04-21T21:49:07.617Z,25.40
2023-04-21T21:51:35.343Z,32.93
2023-04-21T21:54:02.595Z,31.30
2023-04-21T21:56:29.826Z,36.10
2023-04-21T21:58:57.888Z,28.60
2023-04-21T22:01:25.476Z,27.93
2023-04-21T22:03:54.050Z,24.07
2023-04-21T22:06:22.626Z,21.05
2023-04-21T22:08:50.076Z,43.78
2023-04-21T22:11:19.842Z,30.23
2023-04-21T22:13:47.314Z,25.20
2023-04-21T22:16:16.976Z,25.13
2023-04-21T22:18:45.276Z,21.37
2023-04-21T22:21:12.612Z,21.20
2023-04-21T22:23:40.317Z,12.43
2023-04-21T22:26:09.526Z,9.57
2023-04-21T22:28:37.042Z,24.33
2023-04-21T22:31:04.689Z,10.20
2023-04-21T22:33:32.415Z,8.97
2023-04-21T22:35:59.734Z,11.30
2023-04-21T22:38:27.149Z,14.07
2023-04-21T22:40:54.907Z,12.30
2023-04-21T22:43:22.375Z,11.77
2023-04-21T22:45:49.904Z,12.90
2023-04-21T22:48:17.430Z,12.40
2023-04-21T22:50:44.986Z,16.73
2023-04-21T22:53:13.506Z,16.53
2023-04-21T22:55:41.242Z,14.48
2023-04-21T22:58:08.512Z,13.33
2023-04-21T23:00:35.846Z,19.67
2023-04-21T23:03:03.967Z,16.77
2023-04-21T23:05:31.560Z,15.10
2023-04-21T23:07:58.986Z,15.93
2023-04-21T23:10:26.713Z,16.70
2023-04-21T23:12:54.000Z,15.50
2023-04-21T23:15:21.608Z,13.17
2023-04-21T23:17:49.508Z,13.93
2023-04-21T23:20:16.806Z,18.17
2023-04-21T23:22:44.279Z,34.43
2023-04-21T23:25:11.988Z,40.53
2023-04-21T23:27:39.384Z,27.57
2023-04-21T23:30:07.651Z,23.07
2023-04-21T23:32:35.464Z,17.73
2023-04-21T23:35:02.847Z,18.57
2023-04-21T23:37:30.130Z,17.23
2023-04-21T23:39:57.758Z,14.03
2023-04-21T23:42:25.202Z,18.47
2023-04-21T23:44:52.542Z,18.23
2023-04-21T23:47:20.772Z,18.13
2023-04-21T23:49:48.418Z,14.17
2023-04-21T23:52:15.798Z,21.03
2023-04-21T23:54:43.459Z,18.03
2023-04-21T23:57:10.885Z,21.07
2023-04-21T23:59:38.528Z,20.60
